sensor_id;sensor_type;location;lat;lon;timestamp;temperature;humidity
41928;DHT22;27616;51.420;6.788;2023-03-23T00:02:30;12.00;99.90
41928;DHT22;27616;51.420;6.788;2023-03-23T00:05:07;12.00;99.90
41928;DHT22;27616;51.420;6.788;2023-03-23T00:07:34;12.10;99.90
41928;DHT22;27616;51.420;6.788;2023-03-23T00:10:00;12.10;99.90
41928;DHT22;27616;51.420;6.788;2023-03-23T00:12:30;12.10;99.90
41928;DHT22;27616;51.420;6.788;2023-03-23T00:15:09;12.20;99.90
41928;DHT22;27616;51.420;6.788;2023-03-23T00:17:39;12.20;99.90
41928;DHT22;27616;51.420;6.788;2023-03-23T00:20:06;12.30;99.90
41928;DHT22;27616;51.420;6.788;2023-03-23T00:22:33;12.30;99.90
41928;DHT22;27616;51.420;6.788;2023-03-23T00:25:04;12.30;99.90
41928;DHT22;27616;51.420;6.788;2023-03-23T00:27:30;12.40;99.90
41928;DHT22;27616;51.420;6.788;2023-03-23T00:29:56;12.30;99.90
41928;DHT22;27616;51.420;6.788;2023-03-23T00:32:23;12.30;99.90
41928;DHT22;27616;51.420;6.788;2023-03-23T00:34:56;12.30;99.90
41928;DHT22;27616;51.420;6.788;2023-03-23T00:37:24;12.40;99.90
41928;DHT22;27616;51.420;6.788;2023-03-23T00:39:50;12.40;99.90
41928;DHT22;27616;51.420;6.788;2023-03-23T00:42:17;12.50;99.90
41928;DHT22;27616;51.420;6.788;2023-03-23T00:44:43;12.50;99.90
41928;DHT22;27616;51.420;6.788;2023-03-23T00:47:10;12.50;99.90
41928;DHT22;27616;51.420;6.788;2023-03-23T00:49:38;12.40;99.90
41928;DHT22;27616;51.420;6.788;2023-03-23T00:52:05;12.40;99.90
41928;DHT22;27616;51.420;6.788;2023-03-23T00:54:32;12.40;99.90
41928;DHT22;27616;51.420;6.788;2023-03-23T00:56:59;12.40;99.90
41928;DHT22;27616;51.420;6.788;2023-03-23T00:59:24;12.50;99.90
41928;DHT22;27616;51.420;6.788;2023-03-23T01:01:50;12.50;99.90
41928;DHT22;27616;51.420;6.788;2023-03-23T01:04:16;12.50;99.90
41928;DHT22;27616;51.420;6.788;2023-03-23T01:06:43;12.40;99.90
41928;DHT22;27616;51.420;6.788;2023-03-23T01:09:14;12.40;99.90
41928;DHT22;27616;51.420;6.788;2023-03-23T01:11:45;12.50;99.90
41928;DHT22;27616;51.420;6.788;2023-03-23T01:14:14;12.40;99.90
41928;DHT22;27616;51.420;6.788;2023-03-23T01:16:40;12.50;99.90
41928;DHT22;27616;51.420;6.788;2023-03-23T01:19:07;12.40;99.90
41928;DHT22;27616;51.420;6.788;2023-03-23T01:21:33;12.50;99.90
41928;DHT22;27616;51.420;6.788;2023-03-23T01:23:58;12.50;99.90
41928;DHT22;27616;51.420;6.788;2023-03-23T01:26:26;12.60;99.90
41928;DHT22;27616;51.420;6.788;2023-03-23T01:28:53;12.60;99.90
41928;DHT22;27616;51.420;6.788;2023-03-23T01:31:21;12.60;99.90
41928;DHT22;27616;51.420;6.788;2023-03-23T01:33:48;12.70;99.90
41928;DHT22;27616;51.420;6.788;2023-03-23T01:36:19;12.70;99.90
41928;DHT22;27616;51.420;6.788;2023-03-23T01:38:47;12.70;99.90
41928;DHT22;27616;51.420;6.788;2023-03-23T01:41:15;12.70;99.90
41928;DHT22;27616;51.420;6.788;2023-03-23T01:46:31;12.70;99.90
41928;DHT22;27616;51.420;6.788;2023-03-23T01:48:59;12.70;99.90
41928;DHT22;27616;51.420;6.788;2023-03-23T01:51:31;12.70;99.90
41928;DHT22;27616;51.420;6.788;2023-03-23T01:54:00;12.80;99.90
41928;DHT22;27616;51.420;6.788;2023-03-23T01:56:32;12.70;99.90
41928;DHT22;27616;51.420;6.788;2023-03-23T01:59:03;12.70;99.90
41928;DHT22;27616;51.420;6.788;2023-03-23T02:01:29;12.70;99.90
41928;DHT22;27616;51.420;6.788;2023-03-23T02:03:56;12.70;99.90
41928;DHT22;27616;51.420;6.788;2023-03-23T02:06:23;12.70;99.90
41928;DHT22;27616;51.420;6.788;2023-03-23T02:09:11;12.70;99.90
41928;DHT22;27616;51.420;6.788;2023-03-23T02:11:39;12.70;99.90
41928;DHT22;27616;51.420;6.788;2023-03-23T02:14:05;12.70;99.90
41928;DHT22;27616;51.420;6.788;2023-03-23T02:18:59;12.60;99.90
41928;DHT22;27616;51.420;6.788;2023-03-23T02:21:41;12.60;99.90
41928;DHT22;27616;51.420;6.788;2023-03-23T02:24:39;12.70;99.90
41928;DHT22;27616;51.420;6.788;2023-03-23T02:27:49;12.60;99.90
41928;DHT22;27616;51.420;6.788;2023-03-23T02:35:44;12.40;99.90
41928;DHT22;27616;51.420;6.788;2023-03-23T02:38:25;12.40;99.90
41928;DHT22;27616;51.420;6.788;2023-03-23T02:40:54;12.40;99.90
41928;DHT22;27616;51.420;6.788;2023-03-23T02:43:24;12.40;99.90
41928;DHT22;27616;51.420;6.788;2023-03-23T02:45:52;12.30;99.90
41928;DHT22;27616;51.420;6.788;2023-03-23T02:48:22;12.30;99.90
41928;DHT22;27616;51.420;6.788;2023-03-23T02:50:51;12.30;99.90
41928;DHT22;27616;51.420;6.788;2023-03-23T02:53:21;12.20;99.90
41928;DHT22;27616;51.420;6.788;2023-03-23T02:55:51;12.20;99.90
41928;DHT22;27616;51.420;6.788;2023-03-23T02:58:20;12.20;99.90
41928;DHT22;27616;51.420;6.788;2023-03-23T03:00:49;12.20;99.90
41928;DHT22;27616;51.420;6.788;2023-03-23T03:03:17;12.10;99.90
41928;DHT22;27616;51.420;6.788;2023-03-23T03:08:55;12.20;99.90
41928;DHT22;27616;51.420;6.788;2023-03-23T03:11:24;12.10;99.90
41928;DHT22;27616;51.420;6.788;2023-03-23T03:14:02;12.10;99.90
41928;DHT22;27616;51.420;6.788;2023-03-23T03:19:20;12.20;99.90
41928;DHT22;27616;51.420;6.788;2023-03-23T03:21:52;12.20;99.90
41928;DHT22;27616;51.420;6.788;2023-03-23T03:24:28;12.20;99.90
41928;DHT22;27616;51.420;6.788;2023-03-23T03:26:56;12.10;99.90
41928;DHT22;27616;51.420;6.788;2023-03-23T03:29:34;12.20;99.90
41928;DHT22;27616;51.420;6.788;2023-03-23T03:32:03;12.20;99.90
41928;DHT22;27616;51.420;6.788;2023-03-23T03:34:32;12.20;99.90
41928;DHT22;27616;51.420;6.788;2023-03-23T03:36:59;12.20;99.90
41928;DHT22;27616;51.420;6.788;2023-03-23T03:39:27;12.30;99.90
41928;DHT22;27616;51.420;6.788;2023-03-23T03:41:53;12.30;99.90
41928;DHT22;27616;51.420;6.788;2023-03-23T03:44:19;12.30;99.90
41928;DHT22;27616;51.420;6.788;2023-03-23T03:46:45;12.30;99.90
41928;DHT22;27616;51.420;6.788;2023-03-23T03:49:11;12.30;99.90
41928;DHT22;27616;51.420;6.788;2023-03-23T03:51:40;12.30;99.90
41928;DHT22;27616;51.420;6.788;2023-03-23T03:54:07;12.30;99.90
41928;DHT22;27616;51.420;6.788;2023-03-23T03:56:33;12.30;99.90
41928;DHT22;27616;51.420;6.788;2023-03-23T03:59:22;12.30;99.90
41928;DHT22;27616;51.420;6.788;2023-03-23T04:02:14;12.30;99.90
41928;DHT22;27616;51.420;6.788;2023-03-23T04:04:42;12.30;99.90
41928;DHT22;27616;51.420;6.788;2023-03-23T04:07:09;12.40;99.90
41928;DHT22;27616;51.420;6.788;2023-03-23T04:09:46;12.40;99.90
41928;DHT22;27616;51.420;6.788;2023-03-23T04:12:15;12.40;99.90
41928;DHT22;27616;51.420;6.788;2023-03-23T04:15:07;12.40;99.90
41928;DHT22;27616;51.420;6.788;2023-03-23T04:17:35;12.40;99.90
41928;DHT22;27616;51.420;6.788;2023-03-23T04:20:02;12.40;99.90
41928;DHT22;27616;51.420;6.788;2023-03-23T04:22:33;12.40;99.90
41928;DHT22;27616;51.420;6.788;2023-03-23T04:25:01;12.50;99.90
41928;DHT22;27616;51.420;6.788;2023-03-23T04:27:32;12.50;99.90
41928;DHT22;27616;51.420;6.788;2023-03-23T04:30:00;12.50;99.90
41928;DHT22;27616;51.420;6.788;2023-03-23T04:32:40;12.50;99.90
41928;DHT22;27616;51.420;6.788;2023-03-23T04:35:10;12.50;99.90
41928;DHT22;27616;51.420;6.788;2023-03-23T04:37:41;12.60;99.90
41928;DHT22;27616;51.420;6.788;2023-03-23T04:40:09;12.60;99.90
41928;DHT22;27616;51.420;6.788;2023-03-23T04:42:44;12.60;99.90
41928;DHT22;27616;51.420;6.788;2023-03-23T04:45:34;12.60;99.90
41928;DHT22;27616;51.420;6.788;2023-03-23T04:48:04;12.60;99.90
41928;DHT22;27616;51.420;6.788;2023-03-23T04:50:46;12.60;99.90
41928;DHT22;27616;51.420;6.788;2023-03-23T04:53:22;12.60;99.90
41928;DHT22;27616;51.420;6.788;2023-03-23T04:55:49;12.60;99.90
41928;DHT22;27616;51.420;6.788;2023-03-23T04:58:17;12.60;99.90
41928;DHT22;27616;51.420;6.788;2023-03-23T05:00:52;12.60;99.90
41928;DHT22;27616;51.420;6.788;2023-03-23T05:03:20;12.60;99.90
41928;DHT22;27616;51.420;6.788;2023-03-23T05:05:48;12.60;99.90
41928;DHT22;27616;51.420;6.788;2023-03-23T05:08:24;12.60;99.90
41928;DHT22;27616;51.420;6.788;2023-03-23T05:10:52;12.60;99.90
41928;DHT22;27616;51.420;6.788;2023-03-23T05:13:20;12.60;99.90
41928;DHT22;27616;51.420;6.788;2023-03-23T05:15:50;12.60;99.90
41928;DHT22;27616;51.420;6.788;2023-03-23T05:18:16;12.60;99.90
41928;DHT22;27616;51.420;6.788;2023-03-23T05:20:43;12.50;99.90
41928;DHT22;27616;51.420;6.788;2023-03-23T05:23:15;12.50;99.90
41928;DHT22;27616;51.420;6.788;2023-03-23T05:25:44;12.50;99.90
41928;DHT22;27616;51.420;6.788;2023-03-23T05:28:14;12.50;99.90
41928;DHT22;27616;51.420;6.788;2023-03-23T05:31:02;12.50;99.90
41928;DHT22;27616;51.420;6.788;2023-03-23T05:33:31;12.50;99.90
41928;DHT22;27616;51.420;6.788;2023-03-23T05:36:05;12.50;99.90
41928;DHT22;27616;51.420;6.788;2023-03-23T05:38:45;12.50;99.90
41928;DHT22;27616;51.420;6.788;2023-03-23T05:41:14;12.60;99.90
41928;DHT22;27616;51.420;6.788;2023-03-23T05:43:41;12.50;99.90
41928;DHT22;27616;51.420;6.788;2023-03-23T05:46:27;12.60;99.90
41928;DHT22;27616;51.420;6.788;2023-03-23T05:48:57;12.50;99.90
41928;DHT22;27616;51.420;6.788;2023-03-23T05:51:30;12.50;99.90
41928;DHT22;27616;51.420;6.788;2023-03-23T05:53:56;12.50;99.90
41928;DHT22;27616;51.420;6.788;2023-03-23T05:56:22;12.50;99.90
41928;DHT22;27616;51.420;6.788;2023-03-23T05:59:16;12.50;99.90
41928;DHT22;27616;51.420;6.788;2023-03-23T06:01:45;12.50;99.90
41928;DHT22;27616;51.420;6.788;2023-03-23T06:04:10;12.50;99.90
41928;DHT22;27616;51.420;6.788;2023-03-23T06:06:51;12.50;99.90
41928;DHT22;27616;51.420;6.788;2023-03-23T06:09:18;12.50;99.90
41928;DHT22;27616;51.420;6.788;2023-03-23T06:12:02;12.50;99.90
41928;DHT22;27616;51.420;6.788;2023-03-23T06:14:52;12.40;99.90
41928;DHT22;27616;51.420;6.788;2023-03-23T06:17:23;12.40;99.90
41928;DHT22;27616;51.420;6.788;2023-03-23T06:19:52;12.50;99.90
41928;DHT22;27616;51.420;6.788;2023-03-23T06:22:18;12.50;99.90
41928;DHT22;27616;51.420;6.788;2023-03-23T06:24:49;12.50;99.90
41928;DHT22;27616;51.420;6.788;2023-03-23T06:27:22;12.50;99.90
41928;DHT22;27616;51.420;6.788;2023-03-23T06:29:47;12.50;99.90
41928;DHT22;27616;51.420;6.788;2023-03-23T06:32:14;12.50;99.90
41928;DHT22;27616;51.420;6.788;2023-03-23T06:34:41;12.50;99.90
41928;DHT22;27616;51.420;6.788;2023-03-23T06:37:34;12.50;99.90
41928;DHT22;27616;51.420;6.788;2023-03-23T06:40:07;12.60;99.90
41928;DHT22;27616;51.420;6.788;2023-03-23T06:42:43;12.50;99.90
41928;DHT22;27616;51.420;6.788;2023-03-23T06:45:23;12.50;99.90
41928;DHT22;27616;51.420;6.788;2023-03-23T06:47:57;12.60;99.90
41928;DHT22;27616;51.420;6.788;2023-03-23T06:50:23;12.50;99.90
41928;DHT22;27616;51.420;6.788;2023-03-23T06:52:50;12.60;99.90
41928;DHT22;27616;51.420;6.788;2023-03-23T06:55:17;12.60;99.90
41928;DHT22;27616;51.420;6.788;2023-03-23T06:57:44;12.70;99.90
41928;DHT22;27616;51.420;6.788;2023-03-23T07:00:11;12.70;99.90
41928;DHT22;27616;51.420;6.788;2023-03-23T07:02:43;12.80;99.90
41928;DHT22;27616;51.420;6.788;2023-03-23T07:05:11;12.70;99.90
41928;DHT22;27616;51.420;6.788;2023-03-23T07:07:40;12.70;99.90
41928;DHT22;27616;51.420;6.788;2023-03-23T07:10:19;12.80;99.90
41928;DHT22;27616;51.420;6.788;2023-03-23T07:12:45;12.80;99.90
41928;DHT22;27616;51.420;6.788;2023-03-23T07:15:11;12.80;99.90
41928;DHT22;27616;51.420;6.788;2023-03-23T07:17:40;12.80;99.90
41928;DHT22;27616;51.420;6.788;2023-03-23T07:20:18;12.70;99.90
41928;DHT22;27616;51.420;6.788;2023-03-23T07:22:44;12.70;99.90
41928;DHT22;27616;51.420;6.788;2023-03-23T07:25:21;12.80;99.90
41928;DHT22;27616;51.420;6.788;2023-03-23T07:27:50;12.70;99.90
41928;DHT22;27616;51.420;6.788;2023-03-23T07:30:17;12.80;99.90
41928;DHT22;27616;51.420;6.788;2023-03-23T07:32:42;12.80;99.90
41928;DHT22;27616;51.420;6.788;2023-03-23T07:35:09;12.80;99.90
41928;DHT22;27616;51.420;6.788;2023-03-23T07:37:58;12.90;99.90
41928;DHT22;27616;51.420;6.788;2023-03-23T07:40:24;12.90;99.90
41928;DHT22;27616;51.420;6.788;2023-03-23T07:42:57;12.90;99.90
41928;DHT22;27616;51.420;6.788;2023-03-23T07:45:40;12.90;99.90
41928;DHT22;27616;51.420;6.788;2023-03-23T07:48:06;12.90;99.90
41928;DHT22;27616;51.420;6.788;2023-03-23T07:50:32;12.80;99.90
41928;DHT22;27616;51.420;6.788;2023-03-23T07:52:59;12.90;99.90
41928;DHT22;27616;51.420;6.788;2023-03-23T07:55:27;12.90;99.90
41928;DHT22;27616;51.420;6.788;2023-03-23T07:58:03;12.90;99.90
41928;DHT22;27616;51.420;6.788;2023-03-23T08:00:29;12.80;99.90
41928;DHT22;27616;51.420;6.788;2023-03-23T08:02:56;12.80;99.90
41928;DHT22;27616;51.420;6.788;2023-03-23T08:05:44;12.90;99.90
41928;DHT22;27616;51.420;6.788;2023-03-23T08:08:10;12.80;99.90
41928;DHT22;27616;51.420;6.788;2023-03-23T08:10:54;12.90;99.90
41928;DHT22;27616;51.420;6.788;2023-03-23T08:13:42;13.00;99.90
41928;DHT22;27616;51.420;6.788;2023-03-23T08:16:32;13.10;99.90
41928;DHT22;27616;51.420;6.788;2023-03-23T08:19:16;13.10;99.90
41928;DHT22;27616;51.420;6.788;2023-03-23T08:22:00;13.10;99.90
41928;DHT22;27616;51.420;6.788;2023-03-23T08:24:49;13.20;99.90
41928;DHT22;27616;51.420;6.788;2023-03-23T08:27:25;13.30;99.90
41928;DHT22;27616;51.420;6.788;2023-03-23T08:30:16;13.30;99.90
41928;DHT22;27616;51.420;6.788;2023-03-23T08:33:00;13.40;99.90
41928;DHT22;27616;51.420;6.788;2023-03-23T08:35:42;13.40;99.90
41928;DHT22;27616;51.420;6.788;2023-03-23T08:38:24;13.40;99.90
41928;DHT22;27616;51.420;6.788;2023-03-23T08:41:08;13.50;99.90
41928;DHT22;27616;51.420;6.788;2023-03-23T08:43:48;13.60;99.90
41928;DHT22;27616;51.420;6.788;2023-03-23T08:46:37;13.70;99.90
41928;DHT22;27616;51.420;6.788;2023-03-23T08:49:16;13.70;99.90
41928;DHT22;27616;51.420;6.788;2023-03-23T08:51:52;13.80;99.90
41928;DHT22;27616;51.420;6.788;2023-03-23T08:54:40;13.80;99.90
41928;DHT22;27616;51.420;6.788;2023-03-23T08:57:31;13.80;99.90
41928;DHT22;27616;51.420;6.788;2023-03-23T09:00:18;13.70;99.90
41928;DHT22;27616;51.420;6.788;2023-03-23T09:03:01;13.70;99.90
41928;DHT22;27616;51.420;6.788;2023-03-23T09:05:45;13.60;99.90
41928;DHT22;27616;51.420;6.788;2023-03-23T09:08:28;13.60;99.90
41928;DHT22;27616;51.420;6.788;2023-03-23T09:11:04;13.50;99.90
41928;DHT22;27616;51.420;6.788;2023-03-23T09:13:30;13.50;99.90
41928;DHT22;27616;51.420;6.788;2023-03-23T09:15:56;13.40;99.90
41928;DHT22;27616;51.420;6.788;2023-03-23T09:18:23;13.50;99.90
41928;DHT22;27616;51.420;6.788;2023-03-23T09:20:53;13.50;99.90
41928;DHT22;27616;51.420;6.788;2023-03-23T09:23:19;13.50;99.90
41928;DHT22;27616;51.420;6.788;2023-03-23T09:25:46;13.40;99.90
41928;DHT22;27616;51.420;6.788;2023-03-23T09:28:13;13.40;99.90
41928;DHT22;27616;51.420;6.788;2023-03-23T09:30:39;13.50;99.90
41928;DHT22;27616;51.420;6.788;2023-03-23T09:33:07;13.40;99.90
41928;DHT22;27616;51.420;6.788;2023-03-23T09:35:34;13.40;99.90
41928;DHT22;27616;51.420;6.788;2023-03-23T09:38:02;13.30;99.90
41928;DHT22;27616;51.420;6.788;2023-03-23T09:40:51;13.40;99.90
41928;DHT22;27616;51.420;6.788;2023-03-23T09:46:22;13.10;99.90
41928;DHT22;27616;51.420;6.788;2023-03-23T09:48:54;12.80;99.90
41928;DHT22;27616;51.420;6.788;2023-03-23T09:56:36;11.60;99.90
41928;DHT22;27616;51.420;6.788;2023-03-23T09:59:18;11.50;99.90
41928;DHT22;27616;51.420;6.788;2023-03-23T10:01:48;11.40;99.90
41928;DHT22;27616;51.420;6.788;2023-03-23T10:07:15;11.50;99.90
41928;DHT22;27616;51.420;6.788;2023-03-23T10:09:44;11.40;99.90
41928;DHT22;27616;51.420;6.788;2023-03-23T10:15:25;11.30;99.90
41928;DHT22;27616;51.420;6.788;2023-03-23T10:20:42;11.20;99.90
41928;DHT22;27616;51.420;6.788;2023-03-23T10:26:19;11.10;99.90
41928;DHT22;27616;51.420;6.788;2023-03-23T10:28:52;11.00;99.90
41928;DHT22;27616;51.420;6.788;2023-03-23T10:31:26;11.00;99.90
41928;DHT22;27616;51.420;6.788;2023-03-23T10:33:56;11.00;99.90
41928;DHT22;27616;51.420;6.788;2023-03-23T10:36:29;11.00;99.90
41928;DHT22;27616;51.420;6.788;2023-03-23T10:41:35;10.80;99.90
41928;DHT22;27616;51.420;6.788;2023-03-23T10:44:04;10.80;99.90
41928;DHT22;27616;51.420;6.788;2023-03-23T10:46:46;10.80;99.90
41928;DHT22;27616;51.420;6.788;2023-03-23T10:49:18;10.80;99.90
41928;DHT22;27616;51.420;6.788;2023-03-23T10:51:50;10.80;99.90
41928;DHT22;27616;51.420;6.788;2023-03-23T10:54:27;10.80;99.90
41928;DHT22;27616;51.420;6.788;2023-03-23T10:56:53;10.70;99.90
41928;DHT22;27616;51.420;6.788;2023-03-23T10:59:21;10.60;99.90
41928;DHT22;27616;51.420;6.788;2023-03-23T11:01:54;10.60;99.90
41928;DHT22;27616;51.420;6.788;2023-03-23T11:04:22;10.50;99.90
41928;DHT22;27616;51.420;6.788;2023-03-23T11:06:51;10.50;99.90
41928;DHT22;27616;51.420;6.788;2023-03-23T11:09:20;10.50;99.90
41928;DHT22;27616;51.420;6.788;2023-03-23T11:11:51;10.40;99.90
41928;DHT22;27616;51.420;6.788;2023-03-23T11:14:32;10.40;99.90
41928;DHT22;27616;51.420;6.788;2023-03-23T11:17:04;10.40;99.90
41928;DHT22;27616;51.420;6.788;2023-03-23T11:19:33;10.50;99.90
41928;DHT22;27616;51.420;6.788;2023-03-23T11:24:35;10.40;99.90
41928;DHT22;27616;51.420;6.788;2023-03-23T11:27:03;10.40;99.90
41928;DHT22;27616;51.420;6.788;2023-03-23T11:29:33;10.40;99.90
41928;DHT22;27616;51.420;6.788;2023-03-23T11:34:33;10.40;99.90
41928;DHT22;27616;51.420;6.788;2023-03-23T11:37:13;10.40;99.90
41928;DHT22;27616;51.420;6.788;2023-03-23T11:39:56;10.50;99.90
41928;DHT22;27616;51.420;6.788;2023-03-23T11:42:26;10.50;99.90
41928;DHT22;27616;51.420;6.788;2023-03-23T11:45:21;10.60;99.90
41928;DHT22;27616;51.420;6.788;2023-03-23T11:47:59;10.70;99.90
41928;DHT22;27616;51.420;6.788;2023-03-23T11:50:36;10.70;99.90
41928;DHT22;27616;51.420;6.788;2023-03-23T11:53:13;10.70;99.90
41928;DHT22;27616;51.420;6.788;2023-03-23T11:58:15;10.90;99.90
41928;DHT22;27616;51.420;6.788;2023-03-23T12:00:57;11.00;99.90
41928;DHT22;27616;51.420;6.788;2023-03-23T12:03:43;11.00;99.90
41928;DHT22;27616;51.420;6.788;2023-03-23T12:06:15;11.00;99.90
41928;DHT22;27616;51.420;6.788;2023-03-23T12:08:59;11.00;99.90
41928;DHT22;27616;51.420;6.788;2023-03-23T12:11:45;11.00;99.90
41928;DHT22;27616;51.420;6.788;2023-03-23T12:16:54;11.10;99.90
41928;DHT22;27616;51.420;6.788;2023-03-23T12:22:31;11.30;99.90
41928;DHT22;27616;51.420;6.788;2023-03-23T12:25:21;11.30;99.90
41928;DHT22;27616;51.420;6.788;2023-03-23T12:37:04;11.50;99.90
41928;DHT22;27616;51.420;6.788;2023-03-23T12:46:01;11.80;99.90
41928;DHT22;27616;51.420;6.788;2023-03-23T12:48:44;12.00;99.90
41928;DHT22;27616;51.420;6.788;2023-03-23T13:01:41;12.40;99.90
41928;DHT22;27616;51.420;6.788;2023-03-23T13:04:16;12.50;99.90
41928;DHT22;27616;51.420;6.788;2023-03-23T13:06:47;12.50;99.90
41928;DHT22;27616;51.420;6.788;2023-03-23T13:09:35;12.40;99.90
41928;DHT22;27616;51.420;6.788;2023-03-23T13:12:03;12.50;99.90
41928;DHT22;27616;51.420;6.788;2023-03-23T13:25:38;13.90;99.90
41928;DHT22;27616;51.420;6.788;2023-03-23T13:28:05;13.90;99.90
41928;DHT22;27616;51.420;6.788;2023-03-23T13:30:31;13.70;99.90
41928;DHT22;27616;51.420;6.788;2023-03-23T13:33:11;13.40;99.90
41928;DHT22;27616;51.420;6.788;2023-03-23T13:35:39;13.40;99.90
41928;DHT22;27616;51.420;6.788;2023-03-23T13:38:32;13.30;99.90
41928;DHT22;27616;51.420;6.788;2023-03-23T13:41:09;13.30;99.90
41928;DHT22;27616;51.420;6.788;2023-03-23T13:43:37;13.40;99.90
41928;DHT22;27616;51.420;6.788;2023-03-23T13:46:28;13.40;99.90
41928;DHT22;27616;51.420;6.788;2023-03-23T13:56:56;13.70;99.90
41928;DHT22;27616;51.420;6.788;2023-03-23T13:59:45;13.80;99.90
41928;DHT22;27616;51.420;6.788;2023-03-23T14:02:41;13.80;99.90
41928;DHT22;27616;51.420;6.788;2023-03-23T14:10:44;13.70;99.90
41928;DHT22;27616;51.420;6.788;2023-03-23T14:13:20;13.80;99.90
41928;DHT22;27616;51.420;6.788;2023-03-23T14:15:58;13.90;99.90
41928;DHT22;27616;51.420;6.788;2023-03-23T14:19:13;14.00;99.90
41928;DHT22;27616;51.420;6.788;2023-03-23T14:21:35;14.10;99.90
41928;DHT22;27616;51.420;6.788;2023-03-23T14:24:15;14.20;99.90
41928;DHT22;27616;51.420;6.788;2023-03-23T14:26:41;14.30;99.90
41928;DHT22;27616;51.420;6.788;2023-03-23T14:29:10;14.30;99.90
41928;DHT22;27616;51.420;6.788;2023-03-23T14:31:36;14.30;99.90
41928;DHT22;27616;51.420;6.788;2023-03-23T14:34:09;14.30;99.90
41928;DHT22;27616;51.420;6.788;2023-03-23T14:36:39;14.30;99.90
41928;DHT22;27616;51.420;6.788;2023-03-23T14:39:19;14.30;99.90
41928;DHT22;27616;51.420;6.788;2023-03-23T14:41:46;14.20;99.90
41928;DHT22;27616;51.420;6.788;2023-03-23T14:44:19;14.20;99.90
41928;DHT22;27616;51.420;6.788;2023-03-23T14:46:46;14.20;99.90
41928;DHT22;27616;51.420;6.788;2023-03-23T14:49:19;14.20;99.90
41928;DHT22;27616;51.420;6.788;2023-03-23T14:51:51;14.20;99.90
41928;DHT22;27616;51.420;6.788;2023-03-23T14:54:22;14.20;99.90
41928;DHT22;27616;51.420;6.788;2023-03-23T14:56:48;14.20;99.90
41928;DHT22;27616;51.420;6.788;2023-03-23T14:59:14;14.10;99.90
41928;DHT22;27616;51.420;6.788;2023-03-23T15:01:41;14.20;99.90
41928;DHT22;27616;51.420;6.788;2023-03-23T15:04:21;14.30;99.90
41928;DHT22;27616;51.420;6.788;2023-03-23T15:06:53;14.50;99.90
41928;DHT22;27616;51.420;6.788;2023-03-23T15:09:23;14.60;99.90
41928;DHT22;27616;51.420;6.788;2023-03-23T15:16:59;14.90;99.90
41928;DHT22;27616;51.420;6.788;2023-03-23T15:19:27;15.00;99.90
41928;DHT22;27616;51.420;6.788;2023-03-23T15:21:56;15.10;99.90
41928;DHT22;27616;51.420;6.788;2023-03-23T15:26:52;14.90;99.90
41928;DHT22;27616;51.420;6.788;2023-03-23T15:29:20;14.80;99.90
41928;DHT22;27616;51.420;6.788;2023-03-23T15:31:51;14.80;99.90
41928;DHT22;27616;51.420;6.788;2023-03-23T15:34:34;14.70;99.90
41928;DHT22;27616;51.420;6.788;2023-03-23T15:37:13;14.60;99.90
41928;DHT22;27616;51.420;6.788;2023-03-23T15:39:44;14.60;99.90
41928;DHT22;27616;51.420;6.788;2023-03-23T15:42:21;14.50;99.90
41928;DHT22;27616;51.420;6.788;2023-03-23T15:45:03;14.50;99.90
41928;DHT22;27616;51.420;6.788;2023-03-23T15:52:45;14.50;99.90
41928;DHT22;27616;51.420;6.788;2023-03-23T15:57:51;14.50;99.90
41928;DHT22;27616;51.420;6.788;2023-03-23T16:00:22;14.40;99.90
41928;DHT22;27616;51.420;6.788;2023-03-23T16:02:53;14.40;99.90
41928;DHT22;27616;51.420;6.788;2023-03-23T16:05:20;14.40;99.90
41928;DHT22;27616;51.420;6.788;2023-03-23T16:07:46;14.50;99.90
41928;DHT22;27616;51.420;6.788;2023-03-23T16:10:18;14.40;99.90
41928;DHT22;27616;51.420;6.788;2023-03-23T16:12:44;14.40;99.90
41928;DHT22;27616;51.420;6.788;2023-03-23T16:15:11;14.40;99.90
41928;DHT22;27616;51.420;6.788;2023-03-23T16:17:37;14.40;99.90
41928;DHT22;27616;51.420;6.788;2023-03-23T16:22:37;14.40;99.90
41928;DHT22;27616;51.420;6.788;2023-03-23T16:25:03;14.30;99.90
41928;DHT22;27616;51.420;6.788;2023-03-23T16:27:29;14.40;99.90
41928;DHT22;27616;51.420;6.788;2023-03-23T16:29:55;14.40;99.90
41928;DHT22;27616;51.420;6.788;2023-03-23T16:32:23;14.40;99.90
41928;DHT22;27616;51.420;6.788;2023-03-23T16:34:48;14.40;99.90
41928;DHT22;27616;51.420;6.788;2023-03-23T16:37:14;14.40;99.90
41928;DHT22;27616;51.420;6.788;2023-03-23T16:39:41;14.30;99.90
41928;DHT22;27616;51.420;6.788;2023-03-23T16:42:06;14.20;99.90
41928;DHT22;27616;51.420;6.788;2023-03-23T16:44:32;14.20;99.90
41928;DHT22;27616;51.420;6.788;2023-03-23T16:46:58;14.20;99.90
41928;DHT22;27616;51.420;6.788;2023-03-23T16:49:24;14.20;99.90
41928;DHT22;27616;51.420;6.788;2023-03-23T16:51:49;14.20;99.90
41928;DHT22;27616;51.420;6.788;2023-03-23T16:54:15;14.20;99.90
41928;DHT22;27616;51.420;6.788;2023-03-23T16:56:41;14.20;99.90
41928;DHT22;27616;51.420;6.788;2023-03-23T16:59:11;14.20;99.90
41928;DHT22;27616;51.420;6.788;2023-03-23T17:01:37;14.10;99.90
41928;DHT22;27616;51.420;6.788;2023-03-23T17:04:03;14.10;99.90
41928;DHT22;27616;51.420;6.788;2023-03-23T17:06:30;14.10;99.90
41928;DHT22;27616;51.420;6.788;2023-03-23T17:08:55;14.10;99.90
41928;DHT22;27616;51.420;6.788;2023-03-23T17:11:21;14.10;99.90
41928;DHT22;27616;51.420;6.788;2023-03-23T17:13:47;14.00;99.90
41928;DHT22;27616;51.420;6.788;2023-03-23T17:16:13;13.90;99.90
41928;DHT22;27616;51.420;6.788;2023-03-23T17:18:38;14.00;99.90
41928;DHT22;27616;51.420;6.788;2023-03-23T17:21:04;14.00;99.90
41928;DHT22;27616;51.420;6.788;2023-03-23T17:23:31;14.00;99.90
41928;DHT22;27616;51.420;6.788;2023-03-23T17:25:57;14.00;99.90
41928;DHT22;27616;51.420;6.788;2023-03-23T17:28:22;13.90;99.90
41928;DHT22;27616;51.420;6.788;2023-03-23T17:30:50;13.70;99.90
41928;DHT22;27616;51.420;6.788;2023-03-23T17:33:16;13.60;99.90
41928;DHT22;27616;51.420;6.788;2023-03-23T17:35:44;13.60;99.90
41928;DHT22;27616;51.420;6.788;2023-03-23T17:38:09;13.60;99.90
41928;DHT22;27616;51.420;6.788;2023-03-23T17:40:35;13.60;99.90
41928;DHT22;27616;51.420;6.788;2023-03-23T17:43:01;13.70;99.90
41928;DHT22;27616;51.420;6.788;2023-03-23T17:45:27;13.70;99.90
41928;DHT22;27616;51.420;6.788;2023-03-23T17:47:53;13.80;99.90
41928;DHT22;27616;51.420;6.788;2023-03-23T17:50:18;13.80;99.90
41928;DHT22;27616;51.420;6.788;2023-03-23T17:52:44;13.80;99.90
41928;DHT22;27616;51.420;6.788;2023-03-23T17:55:10;13.80;99.90
41928;DHT22;27616;51.420;6.788;2023-03-23T17:57:36;13.90;99.90
41928;DHT22;27616;51.420;6.788;2023-03-23T18:00:03;13.80;99.90
41928;DHT22;27616;51.420;6.788;2023-03-23T18:02:32;13.80;99.90